Time;durP1;ratioP1;P1;durP2;ratioP2;P2;SDS_P1;SDS_P2;PMS_P1;PMS_P2;Temp;Humidity;BMP_temperature;BMP_pressure;BME280_temperature;BME280_humidity;BME280_pressure;Samples;Min_cycle;Max_cycle;Signal;HPM_P1;HPM_P2
2023/09/06 00:00:50;;;;;;;;;;;;;;;21.23;28.93;98267.75;4958618;29;1426;-76
2023/09/06 00:03:17;;;;;;;;;;;;;;;21.31;29.09;98269.22;4974021;28;1001;-76
2023/09/06 00:05:42;;;;;;;;;;;;;;;21.58;28.35;98271.09;4939108;29;1371;-76
2023/09/06 00:08:08;;;;;;;;;;;;;;;21.39;28.94;98274.72;4970227;28;1102;-76
2023/09/06 00:10:38;;;;;;;;;;;;;;;21.06;29.47;98275.38;4974392;28;1192;-76
2023/09/06 00:13:06;;;;;;;;;;;;;;;21.41;28.61;98277.94;4942228;29;1983;-76
2023/09/06 00:15:31;;;;;;;;;;;;;;;21.26;28.86;98272.53;4974178;28;1124;-76
2023/09/06 00:17:57;;;;;;;;;;;;;;;21.25;28.96;98270.97;4974114;28;892;-76
2023/09/06 00:20:25;;;;;;;;;;;;;;;21.19;29.28;98261.38;5006057;28;931;-76
2023/09/06 00:22:55;;;;;;;;;;;;;;;21.00;29.57;98253.69;4981500;28;947;-77
2023/09/06 00:25:20;;;;;;;;;;;;;;;21.30;29.03;98261.19;4996600;28;892;-76
2023/09/06 00:27:46;;;;;;;;;;;;;;;21.25;29.03;98265.28;4996612;28;974;-76
2023/09/06 00:30:11;;;;;;;;;;;;;;;21.22;29.23;98265.38;5016183;28;1339;-76
2023/09/06 00:32:37;;;;;;;;;;;;;;;21.45;28.79;98256.00;5015960;28;1975;-77
2023/09/06 00:35:03;;;;;;;;;;;;;;;21.23;28.95;98262.09;5016125;28;1094;-77
2023/09/06 00:37:35;;;;;;;;;;;;;;;20.98;29.63;98273.13;4999791;28;1297;-77
2023/09/06 00:40:08;;;;;;;;;;;;;;;21.24;29.08;98271.38;4999944;28;954;-76
2023/09/06 00:42:34;;;;;;;;;;;;;;;21.13;29.30;98274.41;5000717;28;1567;-77
2023/09/06 00:45:00;;;;;;;;;;;;;;;21.39;28.86;98269.06;5075504;28;868;-76
2023/09/06 00:47:26;;;;;;;;;;;;;;;21.02;29.47;98265.34;5035610;28;1065;-76
2023/09/06 00:49:51;;;;;;;;;;;;;;;21.17;29.01;98271.53;5019301;28;1140;-76
2023/09/06 00:52:18;;;;;;;;;;;;;;;21.17;29.10;98269.50;5019235;28;1984;-76
2023/09/06 00:54:43;;;;;;;;;;;;;;;20.98;29.21;98264.63;4996013;28;937;-76
2023/09/06 00:57:09;;;;;;;;;;;;;;;21.31;28.68;98269.22;4980022;28;1203;-76
2023/09/06 00:59:35;;;;;;;;;;;;;;;21.19;28.82;98267.03;4979942;28;1120;-77
2023/09/06 01:02:01;;;;;;;;;;;;;;;21.31;28.64;98262.78;4980562;28;1755;-77
2023/09/06 01:04:26;;;;;;;;;;;;;;;21.45;28.60;98270.16;4995958;28;1175;-76
2023/09/06 01:06:57;;;;;;;;;;;;;;;21.52;28.41;98264.34;4996173;28;1122;-77
2023/09/06 01:09:23;;;;;;;;;;;;;;;21.56;28.27;98267.91;4995428;28;1171;-77
2023/09/06 01:11:48;;;;;;;;;;;;;;;21.17;28.61;98275.16;4995697;28;1914;-76
2023/09/06 01:14:14;;;;;;;;;;;;;;;21.33;28.76;98266.75;4979803;28;1105;-76
2023/09/06 01:16:42;;;;;;;;;;;;;;;21.02;29.15;98268.97;4979793;28;1068;-77
2023/09/06 01:19:10;;;;;;;;;;;;;;;21.13;28.69;98268.75;4979467;28;1131;-76
2023/09/06 01:21:36;;;;;;;;;;;;;;;21.31;28.58;98269.22;4995790;28;1215;-76
2023/09/06 01:24:02;;;;;;;;;;;;;;;21.30;28.56;98276.13;5002308;28;1387;-76
2023/09/06 01:26:28;;;;;;;;;;;;;;;21.29;28.35;98277.31;5018560;28;915;-77
2023/09/06 01:28:53;;;;;;;;;;;;;;;21.21;28.65;98283.59;5034859;28;955;-76
2023/09/06 01:31:19;;;;;;;;;;;;;;;21.25;28.56;98278.66;5021909;28;918;-76
2023/09/06 01:33:45;;;;;;;;;;;;;;;21.09;28.65;98279.38;5056010;28;1921;-76
2023/09/06 01:36:11;;;;;;;;;;;;;;;21.25;28.40;98276.63;5039738;28;1118;-76
2023/09/06 01:38:37;;;;;;;;;;;;;;;21.25;28.36;98270.97;5040030;28;758;-76
2023/09/06 01:41:03;;;;;;;;;;;;;;;21.28;28.41;98275.72;5056146;28;921;-76
2023/09/06 01:43:29;;;;;;;;;;;;;;;21.00;28.93;98274.28;5039247;28;1221;-77
2023/09/06 01:45:55;;;;;;;;;;;;;;;21.13;28.48;98274.41;5056071;28;858;-77
2023/09/06 01:48:20;;;;;;;;;;;;;;;20.90;28.97;98274.50;5055503;28;921;-76
2023/09/06 01:50:46;;;;;;;;;;;;;;;20.98;28.64;98270.28;5039270;28;1248;-76
2023/09/06 01:53:14;;;;;;;;;;;;;;;21.30;28.14;98267.66;5039232;28;1914;-76
2023/09/06 01:55:41;;;;;;;;;;;;;;;21.18;28.54;98276.75;5056037;28;1186;-76
2023/09/06 01:58:08;;;;;;;;;;;;;;;21.19;28.46;98272.72;5022606;28;1279;-77
2023/09/06 02:00:36;;;;;;;;;;;;;;;21.09;28.56;98273.72;5039635;28;1149;-76
2023/09/06 02:03:02;;;;;;;;;;;;;;;21.17;28.36;98269.50;5039298;28;1246;-76
2023/09/06 02:05:30;;;;;;;;;;;;;;;21.12;28.24;98267.16;5055683;28;1243;-77
2023/09/06 02:07:55;;;;;;;;;;;;;;;21.31;28.15;98280.56;5055771;28;1194;-76
2023/09/06 02:10:21;;;;;;;;;;;;;;;21.23;28.30;98281.09;5055187;28;1138;-77
2023/09/06 02:12:46;;;;;;;;;;;;;;;21.20;28.46;98284.81;5055495;28;1914;-76
2023/09/06 02:15:14;;;;;;;;;;;;;;;21.05;28.33;98289.97;5041342;28;990;-76
2023/09/06 02:17:42;;;;;;;;;;;;;;;21.04;28.66;98282.72;5026244;28;1237;-76
2023/09/06 02:20:17;;;;;;;;;;;;;;;20.86;28.83;98276.59;5026555;28;871;-76
2023/09/06 02:22:43;;;;;;;;;;;;;;;21.29;28.23;98291.47;5043917;28;1103;-77
2023/09/06 02:25:09;;;;;;;;;;;;;;;20.95;28.72;98279.66;5025325;28;971;-76
2023/09/06 02:27:35;;;;;;;;;;;;;;;20.97;28.77;98285.66;5041563;28;996;-76
2023/09/06 02:30:02;;;;;;;;;;;;;;;21.30;28.33;98284.63;5041643;28;1075;-77
2023/09/06 02:32:27;;;;;;;;;;;;;;;21.31;28.00;98289.06;5025339;28;1906;-77
2023/09/06 02:34:53;;;;;;;;;;;;;;;20.99;28.56;98291.72;5041593;28;919;-76
2023/09/06 02:37:19;;;;;;;;;;;;;;;21.23;28.40;98287.56;5041938;28;1033;-76
2023/09/06 02:39:46;;;;;;;;;;;;;;;21.35;28.02;98296.66;5041506;28;1151;-76
2023/09/06 02:42:11;;;;;;;;;;;;;;;21.25;28.05;98296.44;5041489;28;1164;-76
2023/09/06 02:44:37;;;;;;;;;;;;;;;20.89;28.68;98292.72;5041139;28;1226;-76
2023/09/06 02:47:03;;;;;;;;;;;;;;;21.01;28.27;98289.22;5038303;28;1115;-75
2023/09/06 02:49:29;;;;;;;;;;;;;;;20.96;28.58;98286.91;5022053;28;897;-76
2023/09/06 02:51:56;;;;;;;;;;;;;;;21.04;28.34;98288.38;5021500;28;1914;-76
2023/09/06 02:54:22;;;;;;;;;;;;;;;21.25;27.93;98287.13;5005295;28;1242;-76
2023/09/06 02:56:48;;;;;;;;;;;;;;;21.17;28.27;98292.13;5037812;28;1106;-76
2023/09/06 02:59:15;;;;;;;;;;;;;;;21.08;28.63;98294.72;5036920;28;1240;-76
2023/09/06 03:01:44;;;;;;;;;;;;;;;21.16;28.48;98290.53;5037381;28;1594;-76
2023/09/06 03:04:13;;;;;;;;;;;;;;;20.98;28.69;98296.53;5005663;28;1076;-76
2023/09/06 03:06:39;;;;;;;;;;;;;;;21.16;28.21;98301.88;5023915;28;1556;-76
2023/09/06 03:09:06;;;;;;;;;;;;;;;20.98;28.64;98295.75;5024784;28;1160;-77
2023/09/06 03:11:33;;;;;;;;;;;;;;;20.97;28.80;98282.84;5024436;28;1207;-76
2023/09/06 03:13:58;;;;;;;;;;;;;;;20.72;29.18;98301.06;5024561;28;1903;-76
2023/09/06 03:16:24;;;;;;;;;;;;;;;21.07;28.39;98299.59;5057728;28;875;-76
2023/09/06 03:18:51;;;;;;;;;;;;;;;21.24;28.27;98297.66;5054849;28;1340;-77
2023/09/06 03:21:17;;;;;;;;;;;;;;;20.95;28.85;98293.78;5022908;28;1721;-76
2023/09/06 03:23:44;;;;;;;;;;;;;;;21.01;28.45;98306.19;5059477;28;864;-76
2023/09/06 03:26:10;;;;;;;;;;;;;;;21.11;28.23;98302.38;5058278;28;1205;-76
2023/09/06 03:28:40;;;;;;;;;;;;;;;20.96;28.78;98304.66;5041921;28;1336;-76
2023/09/06 03:31:13;;;;;;;;;;;;;;;20.85;28.65;98311.78;5058328;28;1248;-76
2023/09/06 03:33:39;;;;;;;;;;;;;;;21.02;28.81;98319.09;5042331;28;1909;-76
2023/09/06 03:36:09;;;;;;;;;;;;;;;21.13;28.36;98308.38;5025445;28;1075;-76
2023/09/06 03:38:36;;;;;;;;;;;;;;;20.83;29.09;98317.03;5041817;28;1122;-76
2023/09/06 03:41:02;;;;;;;;;;;;;;;21.08;28.70;98300.41;5016816;28;1239;-77
2023/09/06 03:43:32;;;;;;;;;;;;;;;20.85;29.02;98320.25;4968370;28;1417;-77
2023/09/06 03:45:58;;;;;;;;;;;;;;;21.02;28.82;98313.44;5001588;28;953;-77
2023/09/06 03:48:30;;;;;;;;;;;;;;;21.09;28.48;98324.66;5000815;28;911;-77
2023/09/06 03:50:56;;;;;;;;;;;;;;;21.05;28.38;98324.72;5000471;28;1000;-77
2023/09/06 03:53:25;;;;;;;;;;;;;;;20.89;28.94;98335.13;4968477;28;1915;-77
2023/09/06 03:55:51;;;;;;;;;;;;;;;20.98;28.57;98335.34;4968096;28;1140;-77
2023/09/06 03:58:18;;;;;;;;;;;;;;;20.74;29.33;98337.41;4983505;28;1073;-77
2023/09/06 04:00:44;;;;;;;;;;;;;;;21.03;28.69;98334.84;4999574;28;1108;-77
2023/09/06 04:03:21;;;;;;;;;;;;;;;21.13;28.41;98333.84;4969522;28;1312;-77
2023/09/06 04:05:47;;;;;;;;;;;;;;;20.93;28.77;98350.78;4978030;28;1458;-77
2023/09/06 04:08:17;;;;;;;;;;;;;;;20.91;28.90;98346.81;4981178;28;783;-77
2023/09/06 04:10:44;;;;;;;;;;;;;;;21.13;28.49;98345.16;4980989;28;1270;-77
2023/09/06 04:13:12;;;;;;;;;;;;;;;21.19;28.31;98346.28;5019617;28;1902;-76
2023/09/06 04:15:38;;;;;;;;;;;;;;;20.99;28.90;98354.75;4985774;28;1405;-77
2023/09/06 04:18:05;;;;;;;;;;;;;;;21.22;28.55;98351.06;5016381;28;1241;-76
2023/09/06 04:20:35;;;;;;;;;;;;;;;21.18;28.15;98355.19;5016514;28;1234;-77
2023/09/06 04:23:04;;;;;;;;;;;;;;;21.21;28.37;98355.13;5016152;28;1274;-77
2023/09/06 04:25:33;;;;;;;;;;;;;;;20.80;28.90;98363.97;5028904;28;1458;-77
2023/09/06 04:27:59;;;;;;;;;;;;;;;21.00;28.69;98366.84;5016320;28;1123;-77
2023/09/06 04:30:28;;;;;;;;;;;;;;;20.98;28.76;98369.28;5016453;28;1080;-77
2023/09/06 04:32:57;;;;;;;;;;;;;;;21.05;28.29;98367.16;5015693;28;1967;-76
2023/09/06 04:35:27;;;;;;;;;;;;;;;20.98;28.70;98369.28;5011002;28;1328;-77
2023/09/06 04:37:54;;;;;;;;;;;;;;;21.17;28.32;98365.72;5072043;28;1424;-76
2023/09/06 04:40:20;;;;;;;;;;;;;;;21.11;28.30;98367.44;5056840;28;896;-77
2023/09/06 04:42:46;;;;;;;;;;;;;;;20.97;28.69;98370.53;5040413;28;1304;-77
2023/09/06 04:45:11;;;;;;;;;;;;;;;21.04;28.54;98370.41;5057695;28;1349;-77
2023/09/06 04:47:39;;;;;;;;;;;;;;;21.14;28.50;98372.25;5023707;28;1277;-77
2023/09/06 04:50:05;;;;;;;;;;;;;;;21.08;28.51;98373.97;5056379;28;1261;-76
2023/09/06 04:52:32;;;;;;;;;;;;;;;21.21;28.19;98372.09;5056835;28;1910;-77
2023/09/06 04:54:57;;;;;;;;;;;;;;;21.05;28.39;98369.97;5056453;28;1400;-77
2023/09/06 04:57:25;;;;;;;;;;;;;;;21.10;28.58;98374.34;5040201;28;1193;-77
2023/09/06 04:59:51;;;;;;;;;;;;;;;21.21;28.11;98372.09;5056758;28;1406;-77
2023/09/06 05:02:17;;;;;;;;;;;;;;;20.95;28.44;98385.13;5040208;28;1247;-77
2023/09/06 05:04:43;;;;;;;;;;;;;;;20.93;28.70;98379.06;5056207;28;1386;-77
2023/09/06 05:07:10;;;;;;;;;;;;;;;20.80;29.02;98381.72;5055732;28;1320;-76
2023/09/06 05:09:36;;;;;;;;;;;;;;;20.95;28.42;98384.31;5039658;28;970;-76
2023/09/06 05:12:03;;;;;;;;;;;;;;;20.90;28.66;98384.81;5018603;28;1967;-76
2023/09/06 05:14:30;;;;;;;;;;;;;;;21.24;28.09;98382.56;5031554;28;1650;-76
2023/09/06 05:16:56;;;;;;;;;;;;;;;21.19;28.41;98385.91;5015579;28;886;-76
2023/09/06 05:19:27;;;;;;;;;;;;;;;21.20;28.32;98387.50;4998936;28;1199;-76
2023/09/06 05:21:55;;;;;;;;;;;;;;;21.18;28.18;98384.28;5015576;28;1247;-76
2023/09/06 05:24:22;;;;;;;;;;;;;;;21.17;28.14;98387.56;5033376;28;1439;-77
2023/09/06 05:26:48;;;;;;;;;;;;;;;21.12;28.42;98386.00;5035014;28;1253;-77
2023/09/06 05:29:15;;;;;;;;;;;;;;;21.03;28.42;98378.06;5035185;28;1078;-77
2023/09/06 05:31:41;;;;;;;;;;;;;;;20.99;28.61;98387.88;5002316;28;1254;-77
2023/09/06 05:34:06;;;;;;;;;;;;;;;20.60;29.24;98386.53;5031526;28;1918;-77
2023/09/06 05:36:32;;;;;;;;;;;;;;;21.12;28.59;98397.34;4998632;28;1014;-76
2023/09/06 05:38:58;;;;;;;;;;;;;;;20.85;28.92;98388.94;4995413;28;1221;-77
2023/09/06 05:41:25;;;;;;;;;;;;;;;21.08;28.86;98385.28;4979206;28;1267;-77
2023/09/06 05:43:50;;;;;;;;;;;;;;;20.99;28.77;98385.06;4975399;28;1390;-77
2023/09/06 05:46:16;;;;;;;;;;;;;;;21.23;28.26;98386.59;4975627;28;1003;-76
2023/09/06 05:48:42;;;;;;;;;;;;;;;21.12;28.70;98391.66;4975803;28;1173;-77
2023/09/06 05:51:07;;;;;;;;;;;;;;;21.06;28.87;98393.41;4975943;28;1285;-77
2023/09/06 05:53:33;;;;;;;;;;;;;;;20.94;29.46;98397.66;4975788;28;1914;-77
2023/09/06 05:55:59;;;;;;;;;;;;;;;21.17;29.21;98394.00;4975404;28;1672;-76
2023/09/06 05:58:25;;;;;;;;;;;;;;;21.14;29.18;98388.41;4975531;28;1069;-77
2023/09/06 06:00:53;;;;;;;;;;;;;;;21.06;29.25;98390.56;5005432;28;1326;-77
2023/09/06 06:03:19;;;;;;;;;;;;;;;21.12;29.24;98386.00;5014821;28;843;-77
2023/09/06 06:05:45;;;;;;;;;;;;;;;21.44;29.07;98378.97;4997516;28;1354;-77
2023/09/06 06:08:12;;;;;;;;;;;;;;;21.39;29.01;98385.13;5014452;28;945;-76
2023/09/06 06:10:38;;;;;;;;;;;;;;;21.05;29.55;98392.63;5028907;28;1072;-76
2023/09/06 06:13:04;;;;;;;;;;;;;;;21.13;29.39;98393.25;5054118;28;1977;-77
2023/09/06 06:15:30;;;;;;;;;;;;;;;21.11;29.55;98395.75;5041482;28;1417;-77
2023/09/06 06:17:55;;;;;;;;;;;;;;;21.23;29.58;98394.31;5034046;28;1338;-77
2023/09/06 06:20:21;;;;;;;;;;;;;;;21.21;29.54;98394.75;5034220;28;888;-77
2023/09/06 06:22:47;;;;;;;;;;;;;;;21.17;29.55;98399.66;5001800;28;1127;-77
2023/09/06 06:25:12;;;;;;;;;;;;;;;20.97;29.87;98396.78;5030550;28;912;-77
2023/09/06 06:27:38;;;;;;;;;;;;;;;21.25;29.52;98395.47;5049409;28;1542;-77
2023/09/06 06:30:05;;;;;;;;;;;;;;;21.08;29.78;98402.25;5055383;28;843;-77
2023/09/06 06:32:32;;;;;;;;;;;;;;;21.17;29.61;98410.97;5055289;28;1977;-76
2023/09/06 06:35:01;;;;;;;;;;;;;;;20.92;30.06;98404.97;5055140;28;902;-78
2023/09/06 06:37:27;;;;;;;;;;;;;;;20.99;30.04;98413.34;5022252;28;1504;-77
2023/09/06 06:39:53;;;;;;;;;;;;;;;21.00;30.26;98412.13;5021072;28;957;-77
2023/09/06 06:42:18;;;;;;;;;;;;;;;21.20;29.83;98417.81;5056387;28;837;-76
2023/09/06 06:44:53;;;;;;;;;;;;;;;21.04;29.97;98421.34;5040125;28;1008;-77
2023/09/06 06:47:18;;;;;;;;;;;;;;;21.14;29.93;98417.53;5055761;28;1311;-77
2023/09/06 06:49:44;;;;;;;;;;;;;;;20.99;30.18;98422.63;5038806;28;1261;-77
2023/09/06 06:52:10;;;;;;;;;;;;;;;21.02;30.23;98420.97;5056135;28;1959;-77
2023/09/06 06:54:38;;;;;;;;;;;;;;;21.20;29.90;98429.94;5038783;28;1194;-76
2023/09/06 06:57:04;;;;;;;;;;;;;;;21.33;29.92;98425.25;5054620;28;1710;-76
2023/09/06 06:59:30;;;;;;;;;;;;;;;21.28;29.99;98427.75;5054829;28;1050;-76
2023/09/06 07:01:55;;;;;;;;;;;;;;;21.24;30.33;98427.84;5042340;28;1248;-77
2023/09/06 07:04:21;;;;;;;;;;;;;;;21.30;30.07;98431.81;5041627;28;1359;-77
2023/09/06 07:06:47;;;;;;;;;;;;;;;21.18;30.33;98423.91;5058312;28;1306;-77
2023/09/06 07:09:12;;;;;;;;;;;;;;;21.31;30.25;98427.75;5058540;28;909;-77
2023/09/06 07:11:38;;;;;;;;;;;;;;;21.43;29.86;98431.97;5020914;28;1215;-77
2023/09/06 07:14:04;;;;;;;;;;;;;;;21.21;30.35;98440.03;5020860;28;1906;-76
2023/09/06 07:16:31;;;;;;;;;;;;;;;21.37;30.08;98444.22;5000203;28;1549;-77
2023/09/06 07:18:56;;;;;;;;;;;;;;;21.26;30.07;98438.72;4987968;28;1430;-76
2023/09/06 07:21:22;;;;;;;;;;;;;;;20.98;31.15;98443.63;5020868;28;859;-77
2023/09/06 07:23:48;;;;;;;;;;;;;;;21.08;30.70;98445.50;5037582;28;887;-77
2023/09/06 07:26:13;;;;;;;;;;;;;;;21.14;30.66;98440.16;5000675;28;1347;-77
2023/09/06 07:28:40;;;;;;;;;;;;;;;21.25;30.62;98445.63;4999775;28;1435;-77
2023/09/06 07:31:06;;;;;;;;;;;;;;;21.37;30.30;98447.06;4983176;28;1347;-77
2023/09/06 07:33:31;;;;;;;;;;;;;;;21.28;30.46;98439.88;4984626;28;1907;-77
2023/09/06 07:35:57;;;;;;;;;;;;;;;21.36;30.26;98439.81;5000976;28;768;-77
2023/09/06 07:38:23;;;;;;;;;;;;;;;21.17;30.78;98433.63;4984943;28;1292;-76
2023/09/06 07:41:01;;;;;;;;;;;;;;;21.42;30.51;98438.06;4984091;28;1365;-76
2023/09/06 07:43:28;;;;;;;;;;;;;;;21.40;30.30;98440.50;5034099;28;930;-76
2023/09/06 07:45:54;;;;;;;;;;;;;;;21.32;30.11;98435.00;5017014;28;913;-76
2023/09/06 07:48:20;;;;;;;;;;;;;;;21.24;30.63;98444.84;5017400;28;988;-77
2023/09/06 07:50:46;;;;;;;;;;;;;;;21.35;30.23;98450.31;5016260;28;1372;-78
2023/09/06 07:53:12;;;;;;;;;;;;;;;21.60;30.14;98447.00;5016805;28;1902;-77
2023/09/06 07:55:37;;;;;;;;;;;;;;;21.64;30.01;98444.91;5016987;28;1221;-77
2023/09/06 07:58:03;;;;;;;;;;;;;;;21.26;30.44;98448.00;5016974;28;845;-76
2023/09/06 08:00:31;;;;;;;;;;;;;;;21.20;30.64;98438.44;5016146;28;1293;-77
2023/09/06 08:02:56;;;;;;;;;;;;;;;21.30;30.67;98443.13;5020417;28;1119;-77
2023/09/06 08:05:22;;;;;;;;;;;;;;;21.16;30.74;98443.34;4996780;28;1337;-77
2023/09/06 08:07:47;;;;;;;;;;;;;;;21.16;31.06;98436.88;4997130;28;1004;-77
2023/09/06 08:10:13;;;;;;;;;;;;;;;21.26;30.74;98453.69;4979651;28;1480;-76
2023/09/06 08:12:39;;;;;;;;;;;;;;;21.20;30.62;98446.91;4995020;28;1967;-77
2023/09/06 08:15:05;;;;;;;;;;;;;;;21.36;30.67;98445.47;4996115;28;1367;-76
2023/09/06 08:17:30;;;;;;;;;;;;;;;21.18;31.17;98460.69;5012224;28;1017;-77
2023/09/06 08:19:56;;;;;;;;;;;;;;;21.33;30.78;98447.91;5016355;28;817;-76
2023/09/06 08:22:21;;;;;;;;;;;;;;;21.30;30.71;98443.13;5016203;28;887;-77
2023/09/06 08:24:47;;;;;;;;;;;;;;;21.60;30.47;98455.50;5025104;28;1314;-77
2023/09/06 08:27:13;;;;;;;;;;;;;;;21.59;30.53;98448.22;5019932;28;1552;-77
2023/09/06 08:29:38;;;;;;;;;;;;;;;21.50;30.79;98442.34;5035801;28;953;-77
2023/09/06 08:32:04;;;;;;;;;;;;;;;21.24;31.26;98450.50;5016231;28;1914;-76
2023/09/06 08:34:29;;;;;;;;;;;;;;;21.54;30.85;98445.91;4992856;28;1340;-76
2023/09/06 08:36:56;;;;;;;;;;;;;;;21.26;31.29;98448.00;5010027;28;1085;-77
2023/09/06 08:39:22;;;;;;;;;;;;;;;21.69;30.64;98452.09;5036062;28;920;-77
2023/09/06 08:41:48;;;;;;;;;;;;;;;21.27;31.32;98441.13;5019578;28;898;-77
2023/09/06 08:44:13;;;;;;;;;;;;;;;21.28;31.44;98444.75;5006914;28;1344;-77
2023/09/06 08:46:41;;;;;;;;;;;;;;;21.46;30.89;98438.81;5039384;28;971;-76
2023/09/06 08:49:06;;;;;;;;;;;;;;;21.59;30.53;98448.22;5023259;28;1222;-77
2023/09/06 08:51:35;;;;;;;;;;;;;;;21.40;31.26;98452.66;5039508;28;873;-76
2023/09/06 08:54:01;;;;;;;;;;;;;;;21.55;30.62;98454.00;5038254;28;1910;-77
2023/09/06 08:56:27;;;;;;;;;;;;;;;21.28;31.16;98456.88;5023107;28;1640;-77
2023/09/06 08:58:52;;;;;;;;;;;;;;;21.36;31.17;98451.91;5019400;28;1822;-77
2023/09/06 09:01:18;;;;;;;;;;;;;;;21.47;31.07;98448.88;5021792;28;935;-77
2023/09/06 09:03:44;;;;;;;;;;;;;;;21.39;30.92;98447.41;5050396;28;1472;-77
2023/09/06 09:06:10;;;;;;;;;;;;;;;21.55;30.79;98444.66;5056649;28;1541;-77
2023/09/06 09:08:35;;;;;;;;;;;;;;;21.64;30.55;98432.78;5057443;28;826;-76
2023/09/06 09:11:08;;;;;;;;;;;;;;;21.41;31.09;98459.13;5057984;28;1154;-77
2023/09/06 09:13:34;;;;;;;;;;;;;;;21.45;31.03;98442.84;5056236;28;1910;-77
2023/09/06 09:15:59;;;;;;;;;;;;;;;21.45;30.97;98454.16;5056568;28;874;-77
2023/09/06 09:18:28;;;;;;;;;;;;;;;21.76;30.47;98447.09;5057248;28;881;-77
2023/09/06 09:20:55;;;;;;;;;;;;;;;21.53;30.84;98444.31;5055920;28;1754;-77
2023/09/06 09:23:20;;;;;;;;;;;;;;;21.43;30.83;98446.13;5039763;28;1087;-77
2023/09/06 09:25:49;;;;;;;;;;;;;;;21.64;30.40;98450.56;5055608;28;814;-77
2023/09/06 09:28:15;;;;;;;;;;;;;;;21.53;30.58;98458.47;5057066;28;798;-77
2023/09/06 09:30:40;;;;;;;;;;;;;;;21.74;30.01;98455.22;5055638;28;830;-76
2023/09/06 09:33:06;;;;;;;;;;;;;;;21.57;30.29;98456.38;5039111;28;1964;-77
2023/09/06 09:35:32;;;;;;;;;;;;;;;21.59;30.10;98460.34;5055955;28;987;-77
2023/09/06 09:37:57;;;;;;;;;;;;;;;21.44;30.61;98455.41;5055318;28;898;-77
2023/09/06 09:40:32;;;;;;;;;;;;;;;21.65;30.19;98457.81;5055867;28;1445;-77
2023/09/06 09:42:58;;;;;;;;;;;;;;;21.35;30.72;98466.47;5057443;28;1040;-76
2023/09/06 09:45:30;;;;;;;;;;;;;;;21.43;30.80;98467.97;5039268;28;724;-78
2023/09/06 09:47:56;;;;;;;;;;;;;;;21.44;30.32;98453.38;5055824;28;1118;-77
2023/09/06 09:50:22;;;;;;;;;;;;;;;21.33;30.81;98462.06;5056031;28;1225;-76
2023/09/06 09:52:48;;;;;;;;;;;;;;;21.51;30.74;98463.78;5056536;28;1899;-77
2023/09/06 09:55:15;;;;;;;;;;;;;;;21.33;31.12;98459.22;5034699;28;770;-76
2023/09/06 09:57:44;;;;;;;;;;;;;;;21.70;30.18;98459.34;5043710;28;1293;-77
2023/09/06 10:00:13;;;;;;;;;;;;;;;21.91;29.75;98446.78;5055128;28;884;-77
2023/09/06 10:02:42;;;;;;;;;;;;;;;21.58;30.08;98463.63;5038618;28;977;-77
2023/09/06 10:05:14;;;;;;;;;;;;;;;21.41;30.56;98450.63;5022446;28;1138;-77
2023/09/06 10:07:41;;;;;;;;;;;;;;;21.83;29.80;98458.28;5055519;28;985;-77
2023/09/06 10:10:08;;;;;;;;;;;;;;;21.91;29.77;98444.75;5039008;28;1242;-77
2023/09/06 10:12:34;;;;;;;;;;;;;;;21.67;29.83;98449.69;5037776;28;1946;-76
2023/09/06 10:14:59;;;;;;;;;;;;;;;21.65;29.92;98452.16;5055070;28;1122;-76
2023/09/06 10:17:25;;;;;;;;;;;;;;;21.59;30.12;98456.72;5054922;28;1543;-76
2023/09/06 10:19:51;;;;;;;;;;;;;;;21.35;30.23;98460.81;5039250;28;859;-77
2023/09/06 10:22:17;;;;;;;;;;;;;;;21.55;30.22;98464.50;5037549;28;968;-77
2023/09/06 10:24:43;;;;;;;;;;;;;;;21.55;30.18;98465.31;5037502;28;898;-77
2023/09/06 10:27:12;;;;;;;;;;;;;;;21.36;30.40;98446.25;5004644;28;911;-77
2023/09/06 10:29:50;;;;;;;;;;;;;;;21.50;30.12;98442.34;5020962;28;983;-77
2023/09/06 10:32:16;;;;;;;;;;;;;;;21.43;30.16;98470.78;5037651;28;1898;-77
2023/09/06 10:34:49;;;;;;;;;;;;;;;21.58;30.10;98463.63;5038071;28;1035;-77
2023/09/06 10:37:15;;;;;;;;;;;;;;;21.82;29.94;98456.69;5042339;28;964;-77
2023/09/06 10:39:56;;;;;;;;;;;;;;;21.51;30.37;98452.44;5025129;28;893;-77
2023/09/06 10:42:21;;;;;;;;;;;;;;;21.39;30.69;98456.69;5041587;28;890;-77
2023/09/06 10:44:56;;;;;;;;;;;;;;;21.38;30.62;98443.78;5057631;28;833;-77
2023/09/06 10:47:34;;;;;;;;;;;;;;;21.37;30.56;98447.84;5057447;28;888;-77
2023/09/06 10:50:12;;;;;;;;;;;;;;;21.56;30.16;98443.47;5024352;28;826;-77
2023/09/06 10:53:01;;;;;;;;;;;;;;;21.62;29.94;98441.72;5042675;28;1898;-76
2023/09/06 10:55:29;;;;;;;;;;;;;;;21.87;29.48;98435.56;5060175;28;958;-77
2023/09/06 10:58:02;;;;;;;;;;;;;;;21.40;30.43;98441.34;5042581;28;1390;-76
2023/09/06 11:00:30;;;;;;;;;;;;;;;21.74;29.68;98438.22;5058974;28;854;-77
2023/09/06 11:03:08;;;;;;;;;;;;;;;21.46;30.27;98439.59;5042587;28;1110;-76
2023/09/06 11:05:35;;;;;;;;;;;;;;;21.68;30.00;98434.31;5058994;28;785;-77
2023/09/06 11:08:01;;;;;;;;;;;;;;;21.36;30.45;98429.28;5058667;28;727;-76
2023/09/06 11:10:27;;;;;;;;;;;;;;;21.70;29.88;98420.50;5058492;28;1138;-77
2023/09/06 11:12:54;;;;;;;;;;;;;;;21.79;29.35;98429.22;5058786;28;1914;-76
2023/09/06 11:15:19;;;;;;;;;;;;;;;21.42;30.30;98419.03;5058425;28;861;-77
2023/09/06 11:17:45;;;;;;;;;;;;;;;21.57;29.97;98416.72;5058713;28;807;-77
2023/09/06 11:20:12;;;;;;;;;;;;;;;21.66;29.87;98428.28;5057355;28;865;-77
2023/09/06 11:22:39;;;;;;;;;;;;;;;21.38;30.35;98423.16;5041798;28;864;-76
2023/09/06 11:25:21;;;;;;;;;;;;;;;21.58;29.93;98412.66;5058494;28;991;-77
2023/09/06 11:27:47;;;;;;;;;;;;;;;21.61;29.93;98428.78;5041815;28;759;-77
2023/09/06 11:30:21;;;;;;;;;;;;;;;21.42;30.36;98421.06;5041862;28;1151;-77
2023/09/06 11:32:50;;;;;;;;;;;;;;;21.42;30.48;98416.22;5043032;28;1972;-77
2023/09/06 11:35:16;;;;;;;;;;;;;;;21.74;29.73;98409.91;5058011;28;887;-77
2023/09/06 11:37:46;;;;;;;;;;;;;;;21.63;29.78;98406.50;5059182;28;901;-77
2023/09/06 11:40:14;;;;;;;;;;;;;;;21.77;29.69;98403.38;5058456;28;810;-77
2023/09/06 11:42:44;;;;;;;;;;;;;;;21.84;29.66;98408.88;5058085;28;858;-77
2023/09/06 11:45:12;;;;;;;;;;;;;;;21.49;30.06;98392.63;5041727;28;1122;-77
2023/09/06 11:47:39;;;;;;;;;;;;;;;21.59;29.88;98391.59;5058517;28;946;-77
2023/09/06 11:50:07;;;;;;;;;;;;;;;21.70;29.66;98388.53;5041552;28;1125;-77
2023/09/06 11:52:32;;;;;;;;;;;;;;;21.52;29.82;98391.75;5041654;28;1914;-77
2023/09/06 11:58:14;;;;;;;;;;;;;;;21.57;29.91;98394.09;5050550;28;1356;-77
2023/09/06 12:04:02;;;;;;;;;;;;;;;21.65;29.54;98378.53;5058636;28;780;-77
2023/09/06 12:06:29;;;;;;;;;;;;;;;21.54;30.08;98383.63;5057637;28;831;-77
2023/09/06 12:08:55;;;;;;;;;;;;;;;21.76;29.43;98381.13;5040681;28;964;-77
2023/09/06 12:11:21;;;;;;;;;;;;;;;21.71;29.78;98387.31;5056549;28;1294;-77
2023/09/06 12:13:47;;;;;;;;;;;;;;;21.91;29.18;98370.28;5056322;28;1902;-77
2023/09/06 12:16:13;;;;;;;;;;;;;;;21.67;29.69;98375.28;5039859;28;987;-77
2023/09/06 12:18:38;;;;;;;;;;;;;;;21.70;29.63;98368.72;5039687;28;887;-76
2023/09/06 12:21:04;;;;;;;;;;;;;;;21.75;29.50;98360.50;5056439;28;1143;-77
2023/09/06 12:23:30;;;;;;;;;;;;;;;21.67;29.58;98369.63;5056075;28;1018;-77
2023/09/06 12:25:56;;;;;;;;;;;;;;;21.89;29.31;98358.63;5056456;28;1126;-77
2023/09/06 12:28:22;;;;;;;;;;;;;;;21.71;29.54;98359.81;5039794;28;1153;-76
2023/09/06 12:30:53;;;;;;;;;;;;;;;21.66;29.62;98368.81;5056100;28;979;-77
2023/09/06 12:33:19;;;;;;;;;;;;;;;21.75;29.61;98369.00;5040196;28;1910;-77
2023/09/06 12:35:45;;;;;;;;;;;;;;;21.70;29.57;98363.84;5032590;28;966;-78
2023/09/06 12:38:11;;;;;;;;;;;;;;;21.58;29.90;98350.38;5016406;28;894;-77
2023/09/06 12:40:37;;;;;;;;;;;;;;;21.64;29.98;98348.63;5032745;28;875;-77
2023/09/06 12:43:05;;;;;;;;;;;;;;;21.65;29.91;98350.19;4999768;28;967;-76
2023/09/06 12:45:31;;;;;;;;;;;;;;;21.69;29.61;98356.59;4992422;28;920;-77
2023/09/06 12:47:59;;;;;;;;;;;;;;;21.71;29.75;98354.16;5016453;28;949;-77
2023/09/06 12:50:25;;;;;;;;;;;;;;;21.87;29.14;98356.22;5031259;28;1451;-77
2023/09/06 12:52:51;;;;;;;;;;;;;;;21.64;29.77;98348.63;5035939;28;2240;-77
2023/09/06 12:55:17;;;;;;;;;;;;;;;21.40;30.11;98352.75;5003034;28;1224;-77
2023/09/06 12:57:42;;;;;;;;;;;;;;;21.20;30.53;98356.34;5035184;28;1554;-77
2023/09/06 13:00:10;;;;;;;;;;;;;;;21.18;30.16;98355.97;5019369;28;874;-77
2023/09/06 13:02:35;;;;;;;;;;;;;;;21.58;29.46;98345.50;5019427;28;842;-77
2023/09/06 13:05:01;;;;;;;;;;;;;;;21.57;29.71;98348.78;5051869;28;992;-77